sensor_id;sensor_type;location;lat;lon;timestamp;temperature;humidity
9824;DHT22;4951;50.778;7.196;2022-11-20T00:00:21;2.90;99.90
9824;DHT22;4951;50.778;7.196;2022-11-20T00:02:50;2.90;99.90
9824;DHT22;4951;50.778;7.196;2022-11-20T00:05:17;2.90;99.90
9824;DHT22;4951;50.778;7.196;2022-11-20T00:07:45;2.80;99.90
9824;DHT22;4951;50.778;7.196;2022-11-20T00:10:12;2.90;99.90
9824;DHT22;4951;50.778;7.196;2022-11-20T00:12:40;2.90;99.90
9824;DHT22;4951;50.778;7.196;2022-11-20T00:15:08;2.80;99.90
9824;DHT22;4951;50.778;7.196;2022-11-20T00:17:35;2.80;99.90
9824;DHT22;4951;50.778;7.196;2022-11-20T00:20:05;2.80;99.90
9824;DHT22;4951;50.778;7.196;2022-11-20T00:22:33;2.80;99.90
9824;DHT22;4951;50.778;7.196;2022-11-20T00:25:00;2.80;99.90
9824;DHT22;4951;50.778;7.196;2022-11-20T00:27:29;2.90;99.90
9824;DHT22;4951;50.778;7.196;2022-11-20T00:29:56;2.80;99.90
9824;DHT22;4951;50.778;7.196;2022-11-20T00:32:23;2.80;99.90
9824;DHT22;4951;50.778;7.196;2022-11-20T00:34:50;2.80;99.90
9824;DHT22;4951;50.778;7.196;2022-11-20T00:37:19;2.80;99.90
9824;DHT22;4951;50.778;7.196;2022-11-20T00:39:46;2.80;99.90
9824;DHT22;4951;50.778;7.196;2022-11-20T00:42:13;2.80;99.90
9824;DHT22;4951;50.778;7.196;2022-11-20T00:44:40;2.80;99.90
9824;DHT22;4951;50.778;7.196;2022-11-20T00:47:07;2.80;99.90
9824;DHT22;4951;50.778;7.196;2022-11-20T00:49:35;2.80;99.90
9824;DHT22;4951;50.778;7.196;2022-11-20T00:52:03;2.80;99.90
9824;DHT22;4951;50.778;7.196;2022-11-20T00:54:31;2.90;99.90
9824;DHT22;4951;50.778;7.196;2022-11-20T00:56:58;2.80;99.90
9824;DHT22;4951;50.778;7.196;2022-11-20T00:59:27;2.90;99.90
9824;DHT22;4951;50.778;7.196;2022-11-20T01:01:54;2.90;99.90
9824;DHT22;4951;50.778;7.196;2022-11-20T01:04:25;2.80;99.90
9824;DHT22;4951;50.778;7.196;2022-11-20T01:06:52;2.90;99.90
9824;DHT22;4951;50.778;7.196;2022-11-20T01:09:19;2.80;99.90
9824;DHT22;4951;50.778;7.196;2022-11-20T01:11:48;2.80;99.90
9824;DHT22;4951;50.778;7.196;2022-11-20T01:14:18;2.90;99.90
9824;DHT22;4951;50.778;7.196;2022-11-20T01:16:49;2.80;99.90
9824;DHT22;4951;50.778;7.196;2022-11-20T01:19:18;2.80;99.90
9824;DHT22;4951;50.778;7.196;2022-11-20T01:21:48;2.80;99.90
9824;DHT22;4951;50.778;7.196;2022-11-20T01:24:17;2.80;92.30
9824;DHT22;4951;50.778;7.196;2022-11-20T01:26:49;2.80;89.70
9824;DHT22;4951;50.778;7.196;2022-11-20T01:29:19;2.80;97.40
9824;DHT22;4951;50.778;7.196;2022-11-20T01:31:46;2.80;91.60
9824;DHT22;4951;50.778;7.196;2022-11-20T01:34:16;2.70;95.80
9824;DHT22;4951;50.778;7.196;2022-11-20T01:36:45;2.80;99.90
9824;DHT22;4951;50.778;7.196;2022-11-20T01:39:14;2.80;99.90
9824;DHT22;4951;50.778;7.196;2022-11-20T01:41:42;2.80;99.90
9824;DHT22;4951;50.778;7.196;2022-11-20T01:44:52;2.80;99.90
9824;DHT22;4951;50.778;7.196;2022-11-20T01:47:31;2.80;99.90
9824;DHT22;4951;50.778;7.196;2022-11-20T01:50:04;2.80;99.90
9824;DHT22;4951;50.778;7.196;2022-11-20T01:52:36;2.80;99.90
9824;DHT22;4951;50.778;7.196;2022-11-20T01:55:07;2.80;99.90
9824;DHT22;4951;50.778;7.196;2022-11-20T01:57:36;2.80;99.90
9824;DHT22;4951;50.778;7.196;2022-11-20T02:00:09;2.80;99.90
9824;DHT22;4951;50.778;7.196;2022-11-20T02:02:42;2.80;99.90
9824;DHT22;4951;50.778;7.196;2022-11-20T02:05:17;2.80;99.90
9824;DHT22;4951;50.778;7.196;2022-11-20T02:07:46;2.80;99.90
9824;DHT22;4951;50.778;7.196;2022-11-20T02:10:14;2.90;99.90
9824;DHT22;4951;50.778;7.196;2022-11-20T02:12:42;2.90;99.90
9824;DHT22;4951;50.778;7.196;2022-11-20T02:15:28;2.90;99.90
9824;DHT22;4951;50.778;7.196;2022-11-20T02:17:55;2.90;99.90
9824;DHT22;4951;50.778;7.196;2022-11-20T02:20:22;2.90;99.90
9824;DHT22;4951;50.778;7.196;2022-11-20T02:22:54;2.90;99.90
9824;DHT22;4951;50.778;7.196;2022-11-20T02:25:26;2.90;99.90
9824;DHT22;4951;50.778;7.196;2022-11-20T02:27:54;2.90;99.90
9824;DHT22;4951;50.778;7.196;2022-11-20T02:30:23;2.90;99.90
9824;DHT22;4951;50.778;7.196;2022-11-20T02:32:51;2.90;99.90
9824;DHT22;4951;50.778;7.196;2022-11-20T02:35:52;2.90;99.90
9824;DHT22;4951;50.778;7.196;2022-11-20T02:38:19;2.90;99.90
9824;DHT22;4951;50.778;7.196;2022-11-20T02:40:48;2.90;99.90
9824;DHT22;4951;50.778;7.196;2022-11-20T02:43:15;2.90;99.90
9824;DHT22;4951;50.778;7.196;2022-11-20T02:45:43;2.80;99.90
9824;DHT22;4951;50.778;7.196;2022-11-20T02:48:10;2.80;99.90
9824;DHT22;4951;50.778;7.196;2022-11-20T02:50:38;2.80;99.90
9824;DHT22;4951;50.778;7.196;2022-11-20T02:53:06;2.80;99.90
9824;DHT22;4951;50.778;7.196;2022-11-20T02:55:34;2.80;99.90
9824;DHT22;4951;50.778;7.196;2022-11-20T02:58:03;2.80;99.90
9824;DHT22;4951;50.778;7.196;2022-11-20T03:00:30;2.80;99.90
9824;DHT22;4951;50.778;7.196;2022-11-20T03:02:57;2.80;99.90
9824;DHT22;4951;50.778;7.196;2022-11-20T03:05:25;2.80;99.90
9824;DHT22;4951;50.778;7.196;2022-11-20T03:07:52;2.70;99.90
9824;DHT22;4951;50.778;7.196;2022-11-20T03:10:19;2.60;99.90
9824;DHT22;4951;50.778;7.196;2022-11-20T03:12:46;2.60;99.90
9824;DHT22;4951;50.778;7.196;2022-11-20T03:15:15;2.50;99.90
9824;DHT22;4951;50.778;7.196;2022-11-20T03:17:42;2.40;99.90
9824;DHT22;4951;50.778;7.196;2022-11-20T03:20:10;2.40;99.90
9824;DHT22;4951;50.778;7.196;2022-11-20T03:22:37;2.40;99.90
9824;DHT22;4951;50.778;7.196;2022-11-20T03:25:05;2.40;99.90
9824;DHT22;4951;50.778;7.196;2022-11-20T03:27:33;2.50;99.90
9824;DHT22;4951;50.778;7.196;2022-11-20T03:30:01;2.50;99.90
9824;DHT22;4951;50.778;7.196;2022-11-20T03:32:30;2.50;99.90
9824;DHT22;4951;50.778;7.196;2022-11-20T03:34:57;2.60;99.90
9824;DHT22;4951;50.778;7.196;2022-11-20T03:37:25;2.60;99.90
9824;DHT22;4951;50.778;7.196;2022-11-20T03:39:52;2.60;99.90
9824;DHT22;4951;50.778;7.196;2022-11-20T03:42:19;2.70;99.90
9824;DHT22;4951;50.778;7.196;2022-11-20T03:45:05;2.70;99.90
9824;DHT22;4951;50.778;7.196;2022-11-20T03:47:33;2.70;99.90
9824;DHT22;4951;50.778;7.196;2022-11-20T03:50:00;2.80;99.90
9824;DHT22;4951;50.778;7.196;2022-11-20T03:52:28;2.80;99.90
9824;DHT22;4951;50.778;7.196;2022-11-20T03:54:55;2.80;99.90
9824;DHT22;4951;50.778;7.196;2022-11-20T03:57:22;2.80;99.90
9824;DHT22;4951;50.778;7.196;2022-11-20T03:59:49;2.80;99.90
9824;DHT22;4951;50.778;7.196;2022-11-20T04:02:17;2.80;99.90
9824;DHT22;4951;50.778;7.196;2022-11-20T04:04:49;2.80;99.90
9824;DHT22;4951;50.778;7.196;2022-11-20T04:07:18;2.80;99.90
9824;DHT22;4951;50.778;7.196;2022-11-20T04:09:51;2.80;99.90
9824;DHT22;4951;50.778;7.196;2022-11-20T04:12:18;2.80;99.90
9824;DHT22;4951;50.778;7.196;2022-11-20T04:14:45;2.80;99.90
9824;DHT22;4951;50.778;7.196;2022-11-20T04:17:12;2.90;99.90
9824;DHT22;4951;50.778;7.196;2022-11-20T04:19:40;2.80;99.90
9824;DHT22;4951;50.778;7.196;2022-11-20T04:22:08;2.80;99.90
9824;DHT22;4951;50.778;7.196;2022-11-20T04:24:37;2.80;99.90
9824;DHT22;4951;50.778;7.196;2022-11-20T04:27:04;2.80;99.90
9824;DHT22;4951;50.778;7.196;2022-11-20T04:29:31;2.80;99.90
9824;DHT22;4951;50.778;7.196;2022-11-20T04:31:59;2.80;99.90
9824;DHT22;4951;50.778;7.196;2022-11-20T04:34:27;2.80;99.90
9824;DHT22;4951;50.778;7.196;2022-11-20T04:36:54;2.80;99.90
9824;DHT22;4951;50.778;7.196;2022-11-20T04:39:22;2.80;99.90
9824;DHT22;4951;50.778;7.196;2022-11-20T04:41:49;2.80;99.90
9824;DHT22;4951;50.778;7.196;2022-11-20T04:44:37;2.80;99.90
9824;DHT22;4951;50.778;7.196;2022-11-20T04:47:04;2.90;99.90
9824;DHT22;4951;50.778;7.196;2022-11-20T04:49:31;2.80;99.90
9824;DHT22;4951;50.778;7.196;2022-11-20T04:51:59;2.80;99.90
9824;DHT22;4951;50.778;7.196;2022-11-20T04:54:28;2.80;99.90
9824;DHT22;4951;50.778;7.196;2022-11-20T04:56:55;2.80;99.90
9824;DHT22;4951;50.778;7.196;2022-11-20T04:59:23;2.80;99.90
9824;DHT22;4951;50.778;7.196;2022-11-20T05:01:50;2.80;99.90
9824;DHT22;4951;50.778;7.196;2022-11-20T05:04:17;2.80;99.90
9824;DHT22;4951;50.778;7.196;2022-11-20T05:06:45;2.80;99.90
9824;DHT22;4951;50.778;7.196;2022-11-20T05:09:12;2.80;99.90
9824;DHT22;4951;50.778;7.196;2022-11-20T05:11:41;2.80;99.90
9824;DHT22;4951;50.778;7.196;2022-11-20T05:14:08;2.80;99.90
9824;DHT22;4951;50.778;7.196;2022-11-20T05:16:35;2.90;99.90
9824;DHT22;4951;50.778;7.196;2022-11-20T05:19:02;2.80;99.90
9824;DHT22;4951;50.778;7.196;2022-11-20T05:21:30;2.90;99.90
9824;DHT22;4951;50.778;7.196;2022-11-20T05:23:58;2.90;99.90
9824;DHT22;4951;50.778;7.196;2022-11-20T05:26:25;2.90;99.90
9824;DHT22;4951;50.778;7.196;2022-11-20T05:28:53;2.90;1.00
9824;DHT22;4951;50.778;7.196;2022-11-20T05:31:21;2.90;99.90
9824;DHT22;4951;50.778;7.196;2022-11-20T05:33:50;2.90;1.00
9824;DHT22;4951;50.778;7.196;2022-11-20T05:36:18;2.90;1.00
9824;DHT22;4951;50.778;7.196;2022-11-20T05:38:45;2.90;1.00
9824;DHT22;4951;50.778;7.196;2022-11-20T05:41:14;2.90;1.00
9824;DHT22;4951;50.778;7.196;2022-11-20T05:43:44;2.90;1.00
9824;DHT22;4951;50.778;7.196;2022-11-20T05:46:14;2.90;1.00
9824;DHT22;4951;50.778;7.196;2022-11-20T05:48:42;2.80;1.00
9824;DHT22;4951;50.778;7.196;2022-11-20T05:51:12;2.90;1.00
9824;DHT22;4951;50.778;7.196;2022-11-20T05:53:40;2.90;1.00
9824;DHT22;4951;50.778;7.196;2022-11-20T05:56:09;2.80;1.00
9824;DHT22;4951;50.778;7.196;2022-11-20T05:58:36;2.90;1.00
9824;DHT22;4951;50.778;7.196;2022-11-20T06:01:05;2.80;1.00
9824;DHT22;4951;50.778;7.196;2022-11-20T06:03:35;2.80;1.00
9824;DHT22;4951;50.778;7.196;2022-11-20T06:06:03;2.80;1.00
9824;DHT22;4951;50.778;7.196;2022-11-20T06:08:31;2.80;1.00
9824;DHT22;4951;50.778;7.196;2022-11-20T06:11:02;2.90;1.00
9824;DHT22;4951;50.778;7.196;2022-11-20T06:13:29;2.90;1.00
9824;DHT22;4951;50.778;7.196;2022-11-20T06:15:56;2.90;1.00
9824;DHT22;4951;50.778;7.196;2022-11-20T06:18:26;2.90;1.00
9824;DHT22;4951;50.778;7.196;2022-11-20T06:21:01;2.90;1.00
9824;DHT22;4951;50.778;7.196;2022-11-20T06:23:29;2.90;1.00
9824;DHT22;4951;50.778;7.196;2022-11-20T06:25:57;3.00;1.00
9824;DHT22;4951;50.778;7.196;2022-11-20T06:28:24;3.00;1.00
9824;DHT22;4951;50.778;7.196;2022-11-20T06:30:51;3.00;1.00
9824;DHT22;4951;50.778;7.196;2022-11-20T06:33:18;3.00;1.00
9824;DHT22;4951;50.778;7.196;2022-11-20T06:35:45;3.00;1.00
9824;DHT22;4951;50.778;7.196;2022-11-20T06:38:14;3.00;1.00
9824;DHT22;4951;50.778;7.196;2022-11-20T06:40:41;3.00;1.00
9824;DHT22;4951;50.778;7.196;2022-11-20T06:43:09;3.00;1.00
9824;DHT22;4951;50.778;7.196;2022-11-20T06:45:36;3.00;1.00
9824;DHT22;4951;50.778;7.196;2022-11-20T06:48:04;3.00;1.00
9824;DHT22;4951;50.778;7.196;2022-11-20T06:50:31;3.00;1.00
9824;DHT22;4951;50.778;7.196;2022-11-20T06:53:00;3.00;1.00
9824;DHT22;4951;50.778;7.196;2022-11-20T06:55:29;3.00;1.00
9824;DHT22;4951;50.778;7.196;2022-11-20T06:57:57;3.00;1.00
9824;DHT22;4951;50.778;7.196;2022-11-20T07:00:24;3.00;1.00
9824;DHT22;4951;50.778;7.196;2022-11-20T07:02:51;3.00;1.00
9824;DHT22;4951;50.778;7.196;2022-11-20T07:05:18;3.00;1.00
9824;DHT22;4951;50.778;7.196;2022-11-20T07:07:45;3.00;1.00
9824;DHT22;4951;50.778;7.196;2022-11-20T07:10:13;3.10;1.00
9824;DHT22;4951;50.778;7.196;2022-11-20T07:12:41;3.10;1.00
9824;DHT22;4951;50.778;7.196;2022-11-20T07:15:09;3.10;1.00
9824;DHT22;4951;50.778;7.196;2022-11-20T07:17:36;3.10;1.00
9824;DHT22;4951;50.778;7.196;2022-11-20T07:20:04;3.10;1.00
9824;DHT22;4951;50.778;7.196;2022-11-20T07:22:31;3.10;1.00
9824;DHT22;4951;50.778;7.196;2022-11-20T07:24:59;3.10;1.00
9824;DHT22;4951;50.778;7.196;2022-11-20T07:27:27;3.20;1.00
9824;DHT22;4951;50.778;7.196;2022-11-20T07:29:56;3.20;1.00
9824;DHT22;4951;50.778;7.196;2022-11-20T07:32:24;3.20;1.00
9824;DHT22;4951;50.778;7.196;2022-11-20T07:34:52;3.20;1.00
9824;DHT22;4951;50.778;7.196;2022-11-20T07:37:26;3.20;1.00
9824;DHT22;4951;50.778;7.196;2022-11-20T07:39:54;3.20;1.00
9824;DHT22;4951;50.778;7.196;2022-11-20T07:42:21;3.20;1.00
9824;DHT22;4951;50.778;7.196;2022-11-20T07:44:51;3.20;1.00
9824;DHT22;4951;50.778;7.196;2022-11-20T07:47:20;3.30;1.00
9824;DHT22;4951;50.778;7.196;2022-11-20T07:49:47;3.30;1.00
9824;DHT22;4951;50.778;7.196;2022-11-20T07:52:15;3.30;1.00
9824;DHT22;4951;50.778;7.196;2022-11-20T07:54:42;3.30;1.00
9824;DHT22;4951;50.778;7.196;2022-11-20T07:57:11;3.20;1.00
9824;DHT22;4951;50.778;7.196;2022-11-20T07:59:39;3.20;1.00
9824;DHT22;4951;50.778;7.196;2022-11-20T08:02:09;3.20;1.00
9824;DHT22;4951;50.778;7.196;2022-11-20T08:04:38;3.20;1.00
9824;DHT22;4951;50.778;7.196;2022-11-20T08:07:06;3.20;1.00
9824;DHT22;4951;50.778;7.196;2022-11-20T08:09:33;3.20;1.00
9824;DHT22;4951;50.778;7.196;2022-11-20T08:12:01;3.30;1.00
9824;DHT22;4951;50.778;7.196;2022-11-20T08:14:45;3.30;1.00
9824;DHT22;4951;50.778;7.196;2022-11-20T08:17:12;3.30;1.00
9824;DHT22;4951;50.778;7.196;2022-11-20T08:19:41;3.40;1.00
9824;DHT22;4951;50.778;7.196;2022-11-20T08:22:08;3.50;1.00
9824;DHT22;4951;50.778;7.196;2022-11-20T08:24:35;3.50;1.00
9824;DHT22;4951;50.778;7.196;2022-11-20T08:27:02;3.50;1.00
9824;DHT22;4951;50.778;7.196;2022-11-20T08:29:30;3.60;1.00
9824;DHT22;4951;50.778;7.196;2022-11-20T08:31:58;3.60;1.00
9824;DHT22;4951;50.778;7.196;2022-11-20T08:34:25;3.60;1.00
9824;DHT22;4951;50.778;7.196;2022-11-20T08:36:53;3.70;1.00
9824;DHT22;4951;50.778;7.196;2022-11-20T08:39:21;3.70;1.00
9824;DHT22;4951;50.778;7.196;2022-11-20T08:41:48;3.80;1.00
9824;DHT22;4951;50.778;7.196;2022-11-20T08:44:15;3.80;1.00
9824;DHT22;4951;50.778;7.196;2022-11-20T08:46:43;3.80;1.00
9824;DHT22;4951;50.778;7.196;2022-11-20T08:49:13;3.90;1.00
9824;DHT22;4951;50.778;7.196;2022-11-20T08:51:41;3.90;1.00
9824;DHT22;4951;50.778;7.196;2022-11-20T08:54:09;4.00;1.00
9824;DHT22;4951;50.778;7.196;2022-11-20T08:56:36;4.00;1.00
9824;DHT22;4951;50.778;7.196;2022-11-20T08:59:04;4.10;1.00
9824;DHT22;4951;50.778;7.196;2022-11-20T09:01:31;4.10;1.00
9824;DHT22;4951;50.778;7.196;2022-11-20T09:03:59;4.10;1.00
9824;DHT22;4951;50.778;7.196;2022-11-20T09:06:26;4.10;1.00
9824;DHT22;4951;50.778;7.196;2022-11-20T09:08:54;4.20;1.00
9824;DHT22;4951;50.778;7.196;2022-11-20T09:11:24;4.20;1.00
9824;DHT22;4951;50.778;7.196;2022-11-20T09:13:51;4.40;1.00
9824;DHT22;4951;50.778;7.196;2022-11-20T09:16:18;4.50;1.00
9824;DHT22;4951;50.778;7.196;2022-11-20T09:18:45;4.50;99.90
9824;DHT22;4951;50.778;7.196;2022-11-20T09:21:14;4.50;99.90
9824;DHT22;4951;50.778;7.196;2022-11-20T09:23:43;4.60;1.00
9824;DHT22;4951;50.778;7.196;2022-11-20T09:26:16;4.70;99.90
9824;DHT22;4951;50.778;7.196;2022-11-20T09:28:51;4.80;99.90
9824;DHT22;4951;50.778;7.196;2022-11-20T09:31:23;4.80;99.90
9824;DHT22;4951;50.778;7.196;2022-11-20T09:33:51;4.90;99.90
9824;DHT22;4951;50.778;7.196;2022-11-20T09:36:20;4.90;99.90
9824;DHT22;4951;50.778;7.196;2022-11-20T09:38:48;4.90;99.90
9824;DHT22;4951;50.778;7.196;2022-11-20T09:41:32;4.90;99.90
9824;DHT22;4951;50.778;7.196;2022-11-20T09:44:07;4.90;99.90
9824;DHT22;4951;50.778;7.196;2022-11-20T09:46:42;4.90;99.90
9824;DHT22;4951;50.778;7.196;2022-11-20T09:49:20;4.90;99.90
9824;DHT22;4951;50.778;7.196;2022-11-20T09:51:56;5.00;99.90
9824;DHT22;4951;50.778;7.196;2022-11-20T09:54:29;5.10;99.90
9824;DHT22;4951;50.778;7.196;2022-11-20T09:57:03;5.10;99.90
9824;DHT22;4951;50.778;7.196;2022-11-20T09:59:40;5.20;99.90
9824;DHT22;4951;50.778;7.196;2022-11-20T10:02:16;5.20;99.90
9824;DHT22;4951;50.778;7.196;2022-11-20T10:04:49;5.20;99.90
9824;DHT22;4951;50.778;7.196;2022-11-20T10:07:23;5.30;99.90
9824;DHT22;4951;50.778;7.196;2022-11-20T10:10:02;5.30;99.90
9824;DHT22;4951;50.778;7.196;2022-11-20T10:13:00;5.30;99.90
9824;DHT22;4951;50.778;7.196;2022-11-20T10:15:44;5.30;99.90
9824;DHT22;4951;50.778;7.196;2022-11-20T10:18:29;5.30;99.90
9824;DHT22;4951;50.778;7.196;2022-11-20T10:21:08;5.30;99.90
9824;DHT22;4951;50.778;7.196;2022-11-20T10:23:59;5.30;99.90
9824;DHT22;4951;50.778;7.196;2022-11-20T10:26:35;5.30;99.90
9824;DHT22;4951;50.778;7.196;2022-11-20T10:29:10;5.40;99.90
9824;DHT22;4951;50.778;7.196;2022-11-20T10:31:41;5.50;99.90
9824;DHT22;4951;50.778;7.196;2022-11-20T10:34:18;5.50;99.90
9824;DHT22;4951;50.778;7.196;2022-11-20T10:36:50;5.60;99.90
9824;DHT22;4951;50.778;7.196;2022-11-20T10:39:32;5.70;99.90
9824;DHT22;4951;50.778;7.196;2022-11-20T10:42:00;5.80;99.90
9824;DHT22;4951;50.778;7.196;2022-11-20T10:44:29;5.90;99.90
9824;DHT22;4951;50.778;7.196;2022-11-20T10:47:45;6.00;99.90
9824;DHT22;4951;50.778;7.196;2022-11-20T10:50:18;6.00;99.90
9824;DHT22;4951;50.778;7.196;2022-11-20T10:52:55;6.10;99.90
9824;DHT22;4951;50.778;7.196;2022-11-20T10:55:28;6.10;99.90
9824;DHT22;4951;50.778;7.196;2022-11-20T10:58:03;6.00;99.90
9824;DHT22;4951;50.778;7.196;2022-11-20T11:00:32;6.00;99.90
9824;DHT22;4951;50.778;7.196;2022-11-20T11:03:01;6.00;99.90
9824;DHT22;4951;50.778;7.196;2022-11-20T11:05:48;5.90;99.20
9824;DHT22;4951;50.778;7.196;2022-11-20T11:08:27;5.90;99.90
9824;DHT22;4951;50.778;7.196;2022-11-20T11:10:57;5.90;99.90
9824;DHT22;4951;50.778;7.196;2022-11-20T11:13:27;5.80;99.90
9824;DHT22;4951;50.778;7.196;2022-11-20T11:15:55;5.90;85.80
9824;DHT22;4951;50.778;7.196;2022-11-20T11:18:25;5.80;99.90
9824;DHT22;4951;50.778;7.196;2022-11-20T11:20:54;5.80;99.00
9824;DHT22;4951;50.778;7.196;2022-11-20T11:23:30;5.80;99.90
9824;DHT22;4951;50.778;7.196;2022-11-20T11:26:00;5.80;99.90
9824;DHT22;4951;50.778;7.196;2022-11-20T11:28:27;5.80;99.90
9824;DHT22;4951;50.778;7.196;2022-11-20T11:30:56;5.80;96.50
9824;DHT22;4951;50.778;7.196;2022-11-20T11:33:26;5.80;99.90
9824;DHT22;4951;50.778;7.196;2022-11-20T11:35:56;5.90;99.90
9824;DHT22;4951;50.778;7.196;2022-11-20T11:38:29;6.00;99.90
9824;DHT22;4951;50.778;7.196;2022-11-20T11:40:57;6.00;99.90
9824;DHT22;4951;50.778;7.196;2022-11-20T11:43:26;6.10;99.90
9824;DHT22;4951;50.778;7.196;2022-11-20T11:46:30;6.10;35.50
9824;DHT22;4951;50.778;7.196;2022-11-20T11:49:01;6.20;1.00
9824;DHT22;4951;50.778;7.196;2022-11-20T11:51:33;6.20;1.00
9824;DHT22;4951;50.778;7.196;2022-11-20T11:54:05;6.20;1.00
9824;DHT22;4951;50.778;7.196;2022-11-20T11:56:36;6.10;1.00
9824;DHT22;4951;50.778;7.196;2022-11-20T11:59:09;6.10;1.00
9824;DHT22;4951;50.778;7.196;2022-11-20T12:01:41;6.10;1.00
9824;DHT22;4951;50.778;7.196;2022-11-20T12:04:19;6.00;1.00
9824;DHT22;4951;50.778;7.196;2022-11-20T12:06:51;5.90;1.00
9824;DHT22;4951;50.778;7.196;2022-11-20T12:09:24;6.00;1.00
9824;DHT22;4951;50.778;7.196;2022-11-20T12:12:01;6.00;1.00
9824;DHT22;4951;50.778;7.196;2022-11-20T12:14:34;6.10;44.90
9824;DHT22;4951;50.778;7.196;2022-11-20T12:17:03;6.20;85.30
9824;DHT22;4951;50.778;7.196;2022-11-20T12:19:34;6.30;67.70
9824;DHT22;4951;50.778;7.196;2022-11-20T12:22:11;6.40;27.30
9824;DHT22;4951;50.778;7.196;2022-11-20T12:25:00;6.40;14.90
9824;DHT22;4951;50.778;7.196;2022-11-20T12:27:49;6.40;1.00
9824;DHT22;4951;50.778;7.196;2022-11-20T12:30:22;6.40;1.00
9824;DHT22;4951;50.778;7.196;2022-11-20T12:33:12;6.30;1.00
9824;DHT22;4951;50.778;7.196;2022-11-20T12:36:09;6.30;1.00
9824;DHT22;4951;50.778;7.196;2022-11-20T12:39:21;6.30;1.00
9824;DHT22;4951;50.778;7.196;2022-11-20T12:42:11;6.30;1.00
9824;DHT22;4951;50.778;7.196;2022-11-20T12:48:48;6.40;1.00
9824;DHT22;4951;50.778;7.196;2022-11-20T12:52:10;6.50;1.00
9824;DHT22;4951;50.778;7.196;2022-11-20T12:55:03;6.60;1.00
9824;DHT22;4951;50.778;7.196;2022-11-20T12:57:50;6.60;1.00
9824;DHT22;4951;50.778;7.196;2022-11-20T13:00:22;6.60;1.00
9824;DHT22;4951;50.778;7.196;2022-11-20T13:03:22;6.60;1.00
9824;DHT22;4951;50.778;7.196;2022-11-20T13:05:59;6.60;1.00
9824;DHT22;4951;50.778;7.196;2022-11-20T13:08:35;6.60;1.00
9824;DHT22;4951;50.778;7.196;2022-11-20T13:11:09;6.60;1.00
9824;DHT22;4951;50.778;7.196;2022-11-20T13:13:54;6.60;1.00
9824;DHT22;4951;50.778;7.196;2022-11-20T13:16:31;6.60;1.00
9824;DHT22;4951;50.778;7.196;2022-11-20T13:19:02;6.60;1.00
9824;DHT22;4951;50.778;7.196;2022-11-20T13:21:36;6.60;1.00
9824;DHT22;4951;50.778;7.196;2022-11-20T13:24:19;6.60;1.00
9824;DHT22;4951;50.778;7.196;2022-11-20T13:27:00;6.60;1.00
9824;DHT22;4951;50.778;7.196;2022-11-20T13:29:29;6.60;1.00
9824;DHT22;4951;50.778;7.196;2022-11-20T13:32:06;6.70;1.00
9824;DHT22;4951;50.778;7.196;2022-11-20T13:34:53;6.70;1.00
9824;DHT22;4951;50.778;7.196;2022-11-20T13:37:33;6.70;1.00
9824;DHT22;4951;50.778;7.196;2022-11-20T13:40:22;6.70;1.00
9824;DHT22;4951;50.778;7.196;2022-11-20T13:43:04;6.70;1.00
9824;DHT22;4951;50.778;7.196;2022-11-20T13:45:40;6.70;1.00
9824;DHT22;4951;50.778;7.196;2022-11-20T13:48:21;6.70;1.00
9824;DHT22;4951;50.778;7.196;2022-11-20T13:51:09;6.70;1.00
9824;DHT22;4951;50.778;7.196;2022-11-20T13:57:05;6.70;17.00
9824;DHT22;4951;50.778;7.196;2022-11-20T13:59:56;6.70;24.00
9824;DHT22;4951;50.778;7.196;2022-11-20T14:02:43;6.60;52.00
9824;DHT22;4951;50.778;7.196;2022-11-20T14:05:20;6.70;79.70
9824;DHT22;4951;50.778;7.196;2022-11-20T14:07:50;6.70;99.80
9824;DHT22;4951;50.778;7.196;2022-11-20T14:10:25;6.70;99.90
9824;DHT22;4951;50.778;7.196;2022-11-20T14:13:16;6.70;99.90
9824;DHT22;4951;50.778;7.196;2022-11-20T14:15:56;6.70;99.90
9824;DHT22;4951;50.778;7.196;2022-11-20T14:18:43;6.70;99.90
9824;DHT22;4951;50.778;7.196;2022-11-20T14:21:21;6.70;99.90
9824;DHT22;4951;50.778;7.196;2022-11-20T14:23:49;6.60;99.90
9824;DHT22;4951;50.778;7.196;2022-11-20T14:26:20;6.60;99.90
9824;DHT22;4951;50.778;7.196;2022-11-20T14:28:50;6.60;99.90
9824;DHT22;4951;50.778;7.196;2022-11-20T14:31:23;6.50;99.90
9824;DHT22;4951;50.778;7.196;2022-11-20T14:33:56;6.50;99.90
9824;DHT22;4951;50.778;7.196;2022-11-20T14:36:26;6.50;99.90
9824;DHT22;4951;50.778;7.196;2022-11-20T14:38:56;6.50;99.90
9824;DHT22;4951;50.778;7.196;2022-11-20T14:41:24;6.50;99.90
9824;DHT22;4951;50.778;7.196;2022-11-20T14:43:55;6.50;99.90
9824;DHT22;4951;50.778;7.196;2022-11-20T14:46:33;6.50;99.90
9824;DHT22;4951;50.778;7.196;2022-11-20T14:49:02;6.50;99.90
9824;DHT22;4951;50.778;7.196;2022-11-20T14:51:32;6.50;99.90
9824;DHT22;4951;50.778;7.196;2022-11-20T14:54:10;6.50;99.90
9824;DHT22;4951;50.778;7.196;2022-11-20T14:56:38;6.50;99.90
9824;DHT22;4951;50.778;7.196;2022-11-20T14:59:07;6.40;99.90
9824;DHT22;4951;50.778;7.196;2022-11-20T15:01:35;6.40;99.90
9824;DHT22;4951;50.778;7.196;2022-11-20T15:04:06;6.40;99.90
9824;DHT22;4951;50.778;7.196;2022-11-20T15:06:33;6.40;99.90
9824;DHT22;4951;50.778;7.196;2022-11-20T15:09:02;6.40;99.90
9824;DHT22;4951;50.778;7.196;2022-11-20T15:11:32;6.40;99.90
9824;DHT22;4951;50.778;7.196;2022-11-20T15:14:03;6.40;99.90
9824;DHT22;4951;50.778;7.196;2022-11-20T15:16:32;6.40;99.90
9824;DHT22;4951;50.778;7.196;2022-11-20T15:19:02;6.40;99.90
9824;DHT22;4951;50.778;7.196;2022-11-20T15:21:34;6.40;99.90
9824;DHT22;4951;50.778;7.196;2022-11-20T15:24:02;6.40;99.90
9824;DHT22;4951;50.778;7.196;2022-11-20T15:26:29;6.40;1.00
9824;DHT22;4951;50.778;7.196;2022-11-20T15:28:57;6.40;1.00
9824;DHT22;4951;50.778;7.196;2022-11-20T15:31:24;6.40;1.00
9824;DHT22;4951;50.778;7.196;2022-11-20T15:33:53;6.40;1.00
9824;DHT22;4951;50.778;7.196;2022-11-20T15:36:20;6.40;1.00
9824;DHT22;4951;50.778;7.196;2022-11-20T15:38:47;6.50;1.00
9824;DHT22;4951;50.778;7.196;2022-11-20T15:41:15;6.50;1.00
9824;DHT22;4951;50.778;7.196;2022-11-20T15:43:42;6.50;1.00
9824;DHT22;4951;50.778;7.196;2022-11-20T15:46:11;6.60;1.00
9824;DHT22;4951;50.778;7.196;2022-11-20T15:48:41;6.50;1.00
9824;DHT22;4951;50.778;7.196;2022-11-20T15:51:21;6.50;1.00
9824;DHT22;4951;50.778;7.196;2022-11-20T15:53:50;6.50;1.00
9824;DHT22;4951;50.778;7.196;2022-11-20T15:56:17;6.50;1.00
9824;DHT22;4951;50.778;7.196;2022-11-20T15:58:44;6.50;1.00
9824;DHT22;4951;50.778;7.196;2022-11-20T16:01:12;6.40;1.00
9824;DHT22;4951;50.778;7.196;2022-11-20T16:03:40;6.40;1.00
9824;DHT22;4951;50.778;7.196;2022-11-20T16:06:07;6.40;1.00
9824;DHT22;4951;50.778;7.196;2022-11-20T16:08:36;6.30;1.00
9824;DHT22;4951;50.778;7.196;2022-11-20T16:11:04;6.30;1.00
9824;DHT22;4951;50.778;7.196;2022-11-20T16:13:32;6.20;1.00
9824;DHT22;4951;50.778;7.196;2022-11-20T16:16:20;6.20;1.00
9824;DHT22;4951;50.778;7.196;2022-11-20T16:18:48;6.20;1.00
9824;DHT22;4951;50.778;7.196;2022-11-20T16:21:15;6.20;1.00
9824;DHT22;4951;50.778;7.196;2022-11-20T16:23:44;6.20;1.00
9824;DHT22;4951;50.778;7.196;2022-11-20T16:26:12;6.10;1.00
9824;DHT22;4951;50.778;7.196;2022-11-20T16:28:40;6.10;1.00
9824;DHT22;4951;50.778;7.196;2022-11-20T16:31:11;6.10;1.00
9824;DHT22;4951;50.778;7.196;2022-11-20T16:33:39;6.10;1.00
9824;DHT22;4951;50.778;7.196;2022-11-20T16:36:07;6.10;1.00
9824;DHT22;4951;50.778;7.196;2022-11-20T16:38:35;6.00;1.00
9824;DHT22;4951;50.778;7.196;2022-11-20T16:41:04;6.00;1.00
9824;DHT22;4951;50.778;7.196;2022-11-20T16:43:32;6.00;1.00
9824;DHT22;4951;50.778;7.196;2022-11-20T16:46:03;6.00;1.00
9824;DHT22;4951;50.778;7.196;2022-11-20T16:48:30;5.90;1.00
9824;DHT22;4951;50.778;7.196;2022-11-20T16:50:57;5.90;1.00
9824;DHT22;4951;50.778;7.196;2022-11-20T16:53:26;5.90;1.00
9824;DHT22;4951;50.778;7.196;2022-11-20T16:55:53;5.90;1.00
9824;DHT22;4951;50.778;7.196;2022-11-20T16:58:22;5.90;1.00